sensor_id;sensor_type;location;lat;lon;timestamp;temperature;humidity
42019;DHT22;27703;51.980;5.848;2023-07-30T00:01:24;16.60;99.90
42019;DHT22;27703;51.980;5.848;2023-07-30T00:03:50;16.60;99.90
42019;DHT22;27703;51.980;5.848;2023-07-30T00:06:15;16.60;99.90
42019;DHT22;27703;51.980;5.848;2023-07-30T00:08:41;16.70;99.90
42019;DHT22;27703;51.980;5.848;2023-07-30T00:11:06;16.60;99.90
42019;DHT22;27703;51.980;5.848;2023-07-30T00:13:32;16.60;99.90
42019;DHT22;27703;51.980;5.848;2023-07-30T00:15:57;16.60;99.90
42019;DHT22;27703;51.980;5.848;2023-07-30T00:18:23;16.60;99.90
42019;DHT22;27703;51.980;5.848;2023-07-30T00:20:48;16.50;99.90
42019;DHT22;27703;51.980;5.848;2023-07-30T00:23:14;16.50;99.90
42019;DHT22;27703;51.980;5.848;2023-07-30T00:25:40;16.50;99.90
42019;DHT22;27703;51.980;5.848;2023-07-30T00:28:05;16.40;99.90
42019;DHT22;27703;51.980;5.848;2023-07-30T00:30:31;16.30;99.90
42019;DHT22;27703;51.980;5.848;2023-07-30T00:32:56;16.30;99.90
42019;DHT22;27703;51.980;5.848;2023-07-30T00:35:22;16.20;99.90
42019;DHT22;27703;51.980;5.848;2023-07-30T00:37:47;16.30;99.90
42019;DHT22;27703;51.980;5.848;2023-07-30T00:40:13;16.30;99.90
42019;DHT22;27703;51.980;5.848;2023-07-30T00:42:39;16.30;99.90
42019;DHT22;27703;51.980;5.848;2023-07-30T00:45:05;16.30;99.90
42019;DHT22;27703;51.980;5.848;2023-07-30T00:47:31;16.30;99.90
42019;DHT22;27703;51.980;5.848;2023-07-30T00:49:57;16.30;99.90
42019;DHT22;27703;51.980;5.848;2023-07-30T00:52:23;16.30;99.90
42019;DHT22;27703;51.980;5.848;2023-07-30T00:54:51;16.20;99.90
42019;DHT22;27703;51.980;5.848;2023-07-30T00:57:18;16.20;99.90
42019;DHT22;27703;51.980;5.848;2023-07-30T00:59:45;16.10;99.90
42019;DHT22;27703;51.980;5.848;2023-07-30T01:02:11;16.10;99.90
42019;DHT22;27703;51.980;5.848;2023-07-30T01:04:37;16.10;99.90
42019;DHT22;27703;51.980;5.848;2023-07-30T01:07:05;16.00;99.90
42019;DHT22;27703;51.980;5.848;2023-07-30T01:09:31;16.00;99.90
42019;DHT22;27703;51.980;5.848;2023-07-30T01:11:58;16.00;99.90
42019;DHT22;27703;51.980;5.848;2023-07-30T01:14:24;16.00;99.90
42019;DHT22;27703;51.980;5.848;2023-07-30T01:16:51;16.00;99.90
42019;DHT22;27703;51.980;5.848;2023-07-30T01:19:17;16.00;99.90
42019;DHT22;27703;51.980;5.848;2023-07-30T01:21:43;16.00;99.90
42019;DHT22;27703;51.980;5.848;2023-07-30T01:24:08;16.00;99.90
42019;DHT22;27703;51.980;5.848;2023-07-30T01:26:44;16.00;99.90
42019;DHT22;27703;51.980;5.848;2023-07-30T01:29:22;16.00;99.90
42019;DHT22;27703;51.980;5.848;2023-07-30T01:31:55;16.00;99.90
42019;DHT22;27703;51.980;5.848;2023-07-30T01:34:24;15.90;99.90
42019;DHT22;27703;51.980;5.848;2023-07-30T01:36:51;15.90;99.90
42019;DHT22;27703;51.980;5.848;2023-07-30T01:39:17;15.80;99.90
42019;DHT22;27703;51.980;5.848;2023-07-30T01:41:43;15.80;99.90
42019;DHT22;27703;51.980;5.848;2023-07-30T01:44:09;15.70;99.90
42019;DHT22;27703;51.980;5.848;2023-07-30T01:46:34;15.70;99.90
42019;DHT22;27703;51.980;5.848;2023-07-30T01:49:00;15.70;99.90
42019;DHT22;27703;51.980;5.848;2023-07-30T01:51:25;15.60;99.90
42019;DHT22;27703;51.980;5.848;2023-07-30T01:53:51;15.60;99.90
42019;DHT22;27703;51.980;5.848;2023-07-30T01:56:17;15.50;99.90
42019;DHT22;27703;51.980;5.848;2023-07-30T01:58:42;15.50;99.90
42019;DHT22;27703;51.980;5.848;2023-07-30T02:01:08;15.50;99.90
42019;DHT22;27703;51.980;5.848;2023-07-30T02:03:33;15.50;99.90
42019;DHT22;27703;51.980;5.848;2023-07-30T02:05:59;15.40;99.90
42019;DHT22;27703;51.980;5.848;2023-07-30T02:08:24;15.40;99.90
42019;DHT22;27703;51.980;5.848;2023-07-30T02:10:57;15.40;99.90
42019;DHT22;27703;51.980;5.848;2023-07-30T02:13:23;15.40;99.90
42019;DHT22;27703;51.980;5.848;2023-07-30T02:15:49;15.40;99.90
42019;DHT22;27703;51.980;5.848;2023-07-30T02:18:15;15.30;99.90
42019;DHT22;27703;51.980;5.848;2023-07-30T02:20:41;15.30;99.90
42019;DHT22;27703;51.980;5.848;2023-07-30T02:23:07;15.40;99.90
42019;DHT22;27703;51.980;5.848;2023-07-30T02:25:33;15.30;99.90
42019;DHT22;27703;51.980;5.848;2023-07-30T02:28:00;15.30;99.90
42019;DHT22;27703;51.980;5.848;2023-07-30T02:30:26;15.50;99.90
42019;DHT22;27703;51.980;5.848;2023-07-30T02:32:52;15.40;99.90
42019;DHT22;27703;51.980;5.848;2023-07-30T02:35:17;15.40;99.90
42019;DHT22;27703;51.980;5.848;2023-07-30T02:37:43;15.40;99.90
42019;DHT22;27703;51.980;5.848;2023-07-30T02:40:09;15.40;99.90
42019;DHT22;27703;51.980;5.848;2023-07-30T02:42:35;15.50;99.90
42019;DHT22;27703;51.980;5.848;2023-07-30T02:45:00;15.50;99.90
42019;DHT22;27703;51.980;5.848;2023-07-30T02:47:26;15.50;99.90
42019;DHT22;27703;51.980;5.848;2023-07-30T02:49:51;15.50;99.90
42019;DHT22;27703;51.980;5.848;2023-07-30T02:52:17;15.50;99.90
42019;DHT22;27703;51.980;5.848;2023-07-30T02:54:42;15.50;99.90
42019;DHT22;27703;51.980;5.848;2023-07-30T02:57:08;15.50;99.90
42019;DHT22;27703;51.980;5.848;2023-07-30T02:59:33;15.60;99.90
42019;DHT22;27703;51.980;5.848;2023-07-30T03:02:02;15.50;99.90
42019;DHT22;27703;51.980;5.848;2023-07-30T03:04:27;15.60;99.90
42019;DHT22;27703;51.980;5.848;2023-07-30T03:06:53;15.60;99.90
42019;DHT22;27703;51.980;5.848;2023-07-30T03:09:18;15.60;99.90
42019;DHT22;27703;51.980;5.848;2023-07-30T03:11:44;15.60;99.90
42019;DHT22;27703;51.980;5.848;2023-07-30T03:14:09;15.60;99.90
42019;DHT22;27703;51.980;5.848;2023-07-30T03:16:35;15.50;99.90
42019;DHT22;27703;51.980;5.848;2023-07-30T03:19:00;15.60;99.90
42019;DHT22;27703;51.980;5.848;2023-07-30T03:21:26;15.60;99.90
42019;DHT22;27703;51.980;5.848;2023-07-30T03:23:52;15.60;99.90
42019;DHT22;27703;51.980;5.848;2023-07-30T03:26:17;15.60;99.90
42019;DHT22;27703;51.980;5.848;2023-07-30T03:28:43;15.60;99.90
42019;DHT22;27703;51.980;5.848;2023-07-30T03:31:08;15.60;99.90
42019;DHT22;27703;51.980;5.848;2023-07-30T03:33:34;15.60;99.90
42019;DHT22;27703;51.980;5.848;2023-07-30T03:36:00;15.60;99.90
42019;DHT22;27703;51.980;5.848;2023-07-30T03:38:25;15.60;99.90
42019;DHT22;27703;51.980;5.848;2023-07-30T03:40:51;15.60;99.90
42019;DHT22;27703;51.980;5.848;2023-07-30T03:43:17;15.60;99.90
42019;DHT22;27703;51.980;5.848;2023-07-30T03:45:42;15.70;99.90
42019;DHT22;27703;51.980;5.848;2023-07-30T03:48:08;15.60;99.90
42019;DHT22;27703;51.980;5.848;2023-07-30T03:50:33;15.60;99.90
42019;DHT22;27703;51.980;5.848;2023-07-30T03:52:59;15.60;99.90
42019;DHT22;27703;51.980;5.848;2023-07-30T03:55:25;15.70;99.90
42019;DHT22;27703;51.980;5.848;2023-07-30T03:57:50;15.60;99.90
42019;DHT22;27703;51.980;5.848;2023-07-30T04:00:16;15.60;99.90
42019;DHT22;27703;51.980;5.848;2023-07-30T04:02:41;15.60;99.90
42019;DHT22;27703;51.980;5.848;2023-07-30T04:05:07;15.70;99.90
42019;DHT22;27703;51.980;5.848;2023-07-30T04:07:32;15.70;99.90
42019;DHT22;27703;51.980;5.848;2023-07-30T04:09:58;15.70;99.90
42019;DHT22;27703;51.980;5.848;2023-07-30T04:12:24;15.60;99.90
42019;DHT22;27703;51.980;5.848;2023-07-30T04:14:49;15.70;99.90
42019;DHT22;27703;51.980;5.848;2023-07-30T04:17:15;15.70;99.90
42019;DHT22;27703;51.980;5.848;2023-07-30T04:19:40;15.60;99.90
42019;DHT22;27703;51.980;5.848;2023-07-30T04:22:06;15.60;99.90
42019;DHT22;27703;51.980;5.848;2023-07-30T04:24:31;15.70;99.90
42019;DHT22;27703;51.980;5.848;2023-07-30T04:26:57;15.70;99.90
42019;DHT22;27703;51.980;5.848;2023-07-30T04:29:22;15.70;99.90
42019;DHT22;27703;51.980;5.848;2023-07-30T04:31:48;15.70;99.90
42019;DHT22;27703;51.980;5.848;2023-07-30T04:34:14;15.70;99.90
42019;DHT22;27703;51.980;5.848;2023-07-30T04:36:40;15.70;99.90
42019;DHT22;27703;51.980;5.848;2023-07-30T04:39:06;15.70;99.90
42019;DHT22;27703;51.980;5.848;2023-07-30T04:41:31;15.70;99.90
42019;DHT22;27703;51.980;5.848;2023-07-30T04:43:57;15.80;99.90
42019;DHT22;27703;51.980;5.848;2023-07-30T04:46:22;15.80;99.90
42019;DHT22;27703;51.980;5.848;2023-07-30T04:48:48;15.80;99.90
42019;DHT22;27703;51.980;5.848;2023-07-30T04:51:13;15.80;99.90
42019;DHT22;27703;51.980;5.848;2023-07-30T04:53:39;15.80;99.90
42019;DHT22;27703;51.980;5.848;2023-07-30T04:56:05;15.90;99.90
42019;DHT22;27703;51.980;5.848;2023-07-30T04:58:30;15.90;99.90
42019;DHT22;27703;51.980;5.848;2023-07-30T05:00:56;15.90;99.90
42019;DHT22;27703;51.980;5.848;2023-07-30T05:03:21;16.00;99.90
42019;DHT22;27703;51.980;5.848;2023-07-30T05:05:47;16.00;99.90
42019;DHT22;27703;51.980;5.848;2023-07-30T05:08:12;16.00;99.90
42019;DHT22;27703;51.980;5.848;2023-07-30T05:10:38;16.10;99.90
42019;DHT22;27703;51.980;5.848;2023-07-30T05:13:04;16.10;99.90
42019;DHT22;27703;51.980;5.848;2023-07-30T05:15:29;16.10;99.90
42019;DHT22;27703;51.980;5.848;2023-07-30T05:17:55;16.10;99.90
42019;DHT22;27703;51.980;5.848;2023-07-30T05:20:20;16.10;99.90
42019;DHT22;27703;51.980;5.848;2023-07-30T05:22:46;16.20;99.90
42019;DHT22;27703;51.980;5.848;2023-07-30T05:25:12;16.20;99.90
42019;DHT22;27703;51.980;5.848;2023-07-30T05:27:37;16.20;99.90
42019;DHT22;27703;51.980;5.848;2023-07-30T05:30:03;16.20;99.90
42019;DHT22;27703;51.980;5.848;2023-07-30T05:32:29;16.20;99.90
42019;DHT22;27703;51.980;5.848;2023-07-30T05:34:54;16.20;99.90
42019;DHT22;27703;51.980;5.848;2023-07-30T05:37:20;16.30;99.90
42019;DHT22;27703;51.980;5.848;2023-07-30T05:39:45;16.30;99.90
42019;DHT22;27703;51.980;5.848;2023-07-30T05:42:11;16.30;99.90
42019;DHT22;27703;51.980;5.848;2023-07-30T05:44:36;16.30;99.90
42019;DHT22;27703;51.980;5.848;2023-07-30T05:47:02;16.30;99.90
42019;DHT22;27703;51.980;5.848;2023-07-30T05:49:28;16.30;99.90
42019;DHT22;27703;51.980;5.848;2023-07-30T05:51:53;16.30;99.90
42019;DHT22;27703;51.980;5.848;2023-07-30T05:54:19;16.40;99.90
42019;DHT22;27703;51.980;5.848;2023-07-30T05:56:44;16.40;99.90
42019;DHT22;27703;51.980;5.848;2023-07-30T05:59:10;16.40;99.90
42019;DHT22;27703;51.980;5.848;2023-07-30T06:01:35;16.50;99.90
42019;DHT22;27703;51.980;5.848;2023-07-30T06:04:01;16.50;99.90
42019;DHT22;27703;51.980;5.848;2023-07-30T06:06:27;16.50;99.90
42019;DHT22;27703;51.980;5.848;2023-07-30T06:08:53;16.50;99.90
42019;DHT22;27703;51.980;5.848;2023-07-30T06:11:19;16.50;99.90
42019;DHT22;27703;51.980;5.848;2023-07-30T06:13:45;16.50;99.90
42019;DHT22;27703;51.980;5.848;2023-07-30T06:16:11;16.60;99.90
42019;DHT22;27703;51.980;5.848;2023-07-30T06:18:36;16.60;99.90
42019;DHT22;27703;51.980;5.848;2023-07-30T06:21:02;16.70;99.90
42019;DHT22;27703;51.980;5.848;2023-07-30T06:23:28;16.70;99.90
42019;DHT22;27703;51.980;5.848;2023-07-30T06:25:53;16.70;99.90
42019;DHT22;27703;51.980;5.848;2023-07-30T06:28:19;16.80;99.90
42019;DHT22;27703;51.980;5.848;2023-07-30T06:30:44;16.80;99.90
42019;DHT22;27703;51.980;5.848;2023-07-30T06:33:10;16.80;99.90
42019;DHT22;27703;51.980;5.848;2023-07-30T06:35:36;16.80;99.90
42019;DHT22;27703;51.980;5.848;2023-07-30T06:38:01;16.80;99.90
42019;DHT22;27703;51.980;5.848;2023-07-30T06:40:27;16.80;99.90
42019;DHT22;27703;51.980;5.848;2023-07-30T06:42:53;16.90;99.90
42019;DHT22;27703;51.980;5.848;2023-07-30T06:45:19;16.90;99.90
42019;DHT22;27703;51.980;5.848;2023-07-30T06:47:45;17.00;99.90
42019;DHT22;27703;51.980;5.848;2023-07-30T06:50:10;16.90;99.90
42019;DHT22;27703;51.980;5.848;2023-07-30T06:52:36;17.00;99.90
42019;DHT22;27703;51.980;5.848;2023-07-30T06:55:03;17.00;99.90
42019;DHT22;27703;51.980;5.848;2023-07-30T06:57:29;17.00;99.90
42019;DHT22;27703;51.980;5.848;2023-07-30T06:59:55;17.00;99.90
42019;DHT22;27703;51.980;5.848;2023-07-30T07:02:22;17.00;99.90
42019;DHT22;27703;51.980;5.848;2023-07-30T07:04:47;17.10;99.90
42019;DHT22;27703;51.980;5.848;2023-07-30T07:07:13;17.10;99.90
42019;DHT22;27703;51.980;5.848;2023-07-30T07:09:38;17.10;99.90
42019;DHT22;27703;51.980;5.848;2023-07-30T07:12:04;17.10;99.90
42019;DHT22;27703;51.980;5.848;2023-07-30T07:14:30;17.20;99.90
42019;DHT22;27703;51.980;5.848;2023-07-30T07:16:55;17.20;99.90
42019;DHT22;27703;51.980;5.848;2023-07-30T07:19:22;17.30;99.90
42019;DHT22;27703;51.980;5.848;2023-07-30T07:21:47;17.40;99.90
42019;DHT22;27703;51.980;5.848;2023-07-30T07:24:13;17.40;99.90
42019;DHT22;27703;51.980;5.848;2023-07-30T07:26:38;17.50;99.90
42019;DHT22;27703;51.980;5.848;2023-07-30T07:29:04;17.60;99.90
42019;DHT22;27703;51.980;5.848;2023-07-30T07:31:29;17.60;99.90
42019;DHT22;27703;51.980;5.848;2023-07-30T07:33:55;17.60;99.90
42019;DHT22;27703;51.980;5.848;2023-07-30T07:36:20;17.70;99.90
42019;DHT22;27703;51.980;5.848;2023-07-30T07:38:46;17.70;99.90
42019;DHT22;27703;51.980;5.848;2023-07-30T07:41:16;17.70;99.90
42019;DHT22;27703;51.980;5.848;2023-07-30T07:43:46;17.80;99.90
42019;DHT22;27703;51.980;5.848;2023-07-30T07:46:12;17.90;99.90
42019;DHT22;27703;51.980;5.848;2023-07-30T07:48:41;18.00;99.90
42019;DHT22;27703;51.980;5.848;2023-07-30T07:51:08;17.90;99.90
42019;DHT22;27703;51.980;5.848;2023-07-30T07:53:34;17.90;99.90
42019;DHT22;27703;51.980;5.848;2023-07-30T07:56:00;17.90;99.90
42019;DHT22;27703;51.980;5.848;2023-07-30T07:58:25;17.90;99.90
42019;DHT22;27703;51.980;5.848;2023-07-30T08:00:54;17.90;99.90
42019;DHT22;27703;51.980;5.848;2023-07-30T08:03:21;17.90;99.90
42019;DHT22;27703;51.980;5.848;2023-07-30T08:05:46;17.90;99.90
42019;DHT22;27703;51.980;5.848;2023-07-30T08:08:12;17.90;99.90
42019;DHT22;27703;51.980;5.848;2023-07-30T08:10:41;17.90;99.90
42019;DHT22;27703;51.980;5.848;2023-07-30T08:13:12;17.90;99.90
42019;DHT22;27703;51.980;5.848;2023-07-30T08:15:38;17.90;99.90
42019;DHT22;27703;51.980;5.848;2023-07-30T08:18:03;18.00;99.90
42019;DHT22;27703;51.980;5.848;2023-07-30T08:20:29;17.90;99.90
42019;DHT22;27703;51.980;5.848;2023-07-30T08:22:54;17.90;99.90
42019;DHT22;27703;51.980;5.848;2023-07-30T08:25:20;17.90;99.90
42019;DHT22;27703;51.980;5.848;2023-07-30T08:27:46;18.00;99.90
42019;DHT22;27703;51.980;5.848;2023-07-30T08:30:12;18.00;99.90
42019;DHT22;27703;51.980;5.848;2023-07-30T08:32:37;18.10;99.90
42019;DHT22;27703;51.980;5.848;2023-07-30T08:35:03;18.10;99.90
42019;DHT22;27703;51.980;5.848;2023-07-30T08:37:29;18.20;99.90
42019;DHT22;27703;51.980;5.848;2023-07-30T08:39:55;18.30;99.90
42019;DHT22;27703;51.980;5.848;2023-07-30T08:42:21;18.40;99.90
42019;DHT22;27703;51.980;5.848;2023-07-30T08:44:46;18.50;99.90
42019;DHT22;27703;51.980;5.848;2023-07-30T08:47:12;18.60;99.90
42019;DHT22;27703;51.980;5.848;2023-07-30T08:49:37;18.70;99.90
42019;DHT22;27703;51.980;5.848;2023-07-30T08:52:04;18.70;99.90
42019;DHT22;27703;51.980;5.848;2023-07-30T08:54:34;18.70;99.90
42019;DHT22;27703;51.980;5.848;2023-07-30T08:57:00;18.80;99.90
42019;DHT22;27703;51.980;5.848;2023-07-30T08:59:27;18.90;99.90
42019;DHT22;27703;51.980;5.848;2023-07-30T09:01:57;18.90;99.90
42019;DHT22;27703;51.980;5.848;2023-07-30T09:04:23;18.80;99.90
42019;DHT22;27703;51.980;5.848;2023-07-30T09:06:49;18.80;99.90
42019;DHT22;27703;51.980;5.848;2023-07-30T09:09:16;18.70;99.90
42019;DHT22;27703;51.980;5.848;2023-07-30T09:11:41;18.80;99.90
42019;DHT22;27703;51.980;5.848;2023-07-30T09:14:07;18.70;99.90
42019;DHT22;27703;51.980;5.848;2023-07-30T09:16:34;18.70;99.90
42019;DHT22;27703;51.980;5.848;2023-07-30T09:19:00;18.70;99.90
42019;DHT22;27703;51.980;5.848;2023-07-30T09:21:30;18.70;99.90
42019;DHT22;27703;51.980;5.848;2023-07-30T09:23:56;18.70;99.90
42019;DHT22;27703;51.980;5.848;2023-07-30T09:26:22;18.70;99.90
42019;DHT22;27703;51.980;5.848;2023-07-30T09:28:48;18.80;99.90
42019;DHT22;27703;51.980;5.848;2023-07-30T09:31:13;19.00;99.90
42019;DHT22;27703;51.980;5.848;2023-07-30T09:33:42;19.20;99.90
42019;DHT22;27703;51.980;5.848;2023-07-30T09:36:08;19.20;99.90
42019;DHT22;27703;51.980;5.848;2023-07-30T09:38:42;19.40;99.90
42019;DHT22;27703;51.980;5.848;2023-07-30T09:41:08;19.50;99.90
42019;DHT22;27703;51.980;5.848;2023-07-30T09:43:35;19.60;99.90
42019;DHT22;27703;51.980;5.848;2023-07-30T09:46:05;19.70;99.90
42019;DHT22;27703;51.980;5.848;2023-07-30T09:48:33;19.70;99.90
42019;DHT22;27703;51.980;5.848;2023-07-30T09:51:01;19.70;99.90
42019;DHT22;27703;51.980;5.848;2023-07-30T09:53:31;19.70;99.90
42019;DHT22;27703;51.980;5.848;2023-07-30T09:56:04;19.80;99.90
42019;DHT22;27703;51.980;5.848;2023-07-30T09:58:30;19.80;99.90
42019;DHT22;27703;51.980;5.848;2023-07-30T10:00:58;19.90;99.90
42019;DHT22;27703;51.980;5.848;2023-07-30T10:03:26;19.80;99.90
42019;DHT22;27703;51.980;5.848;2023-07-30T10:05:52;19.60;99.90
42019;DHT22;27703;51.980;5.848;2023-07-30T10:08:23;19.40;99.90
42019;DHT22;27703;51.980;5.848;2023-07-30T10:10:49;19.30;99.90
42019;DHT22;27703;51.980;5.848;2023-07-30T10:13:16;19.20;99.90
42019;DHT22;27703;51.980;5.848;2023-07-30T10:15:43;19.10;99.90
42019;DHT22;27703;51.980;5.848;2023-07-30T10:18:09;19.00;99.90
42019;DHT22;27703;51.980;5.848;2023-07-30T10:20:35;18.90;99.90
42019;DHT22;27703;51.980;5.848;2023-07-30T10:23:01;18.80;99.90
42019;DHT22;27703;51.980;5.848;2023-07-30T10:28:07;18.80;99.90
42019;DHT22;27703;51.980;5.848;2023-07-30T10:30:33;18.90;99.90
42019;DHT22;27703;51.980;5.848;2023-07-30T10:33:01;19.00;99.90
42019;DHT22;27703;51.980;5.848;2023-07-30T10:35:44;19.10;99.90
42019;DHT22;27703;51.980;5.848;2023-07-30T10:41:15;19.40;99.90
42019;DHT22;27703;51.980;5.848;2023-07-30T10:43:47;19.50;99.90
42019;DHT22;27703;51.980;5.848;2023-07-30T10:46:14;19.40;99.90
42019;DHT22;27703;51.980;5.848;2023-07-30T10:48:42;19.40;99.90
42019;DHT22;27703;51.980;5.848;2023-07-30T10:51:13;19.40;99.90
42019;DHT22;27703;51.980;5.848;2023-07-30T10:53:44;19.40;99.90
42019;DHT22;27703;51.980;5.848;2023-07-30T10:56:10;19.60;99.90
42019;DHT22;27703;51.980;5.848;2023-07-30T10:58:37;19.90;99.90
42019;DHT22;27703;51.980;5.848;2023-07-30T11:01:04;20.20;99.90
42019;DHT22;27703;51.980;5.848;2023-07-30T11:03:30;20.40;99.90
42019;DHT22;27703;51.980;5.848;2023-07-30T11:06:02;20.50;99.90
42019;DHT22;27703;51.980;5.848;2023-07-30T11:08:35;20.60;99.90
42019;DHT22;27703;51.980;5.848;2023-07-30T11:11:01;20.70;99.90
42019;DHT22;27703;51.980;5.848;2023-07-30T11:13:27;20.80;99.90
42019;DHT22;27703;51.980;5.848;2023-07-30T11:15:53;20.70;99.90
42019;DHT22;27703;51.980;5.848;2023-07-30T11:18:19;20.60;99.90
42019;DHT22;27703;51.980;5.848;2023-07-30T11:20:44;20.50;99.90
42019;DHT22;27703;51.980;5.848;2023-07-30T11:23:20;20.60;99.90
42019;DHT22;27703;51.980;5.848;2023-07-30T11:25:50;20.70;99.90
42019;DHT22;27703;51.980;5.848;2023-07-30T11:28:35;20.90;99.90
42019;DHT22;27703;51.980;5.848;2023-07-30T11:33:29;21.40;99.90
42019;DHT22;27703;51.980;5.848;2023-07-30T11:35:56;21.70;99.90
42019;DHT22;27703;51.980;5.848;2023-07-30T11:38:26;21.80;99.90
42019;DHT22;27703;51.980;5.848;2023-07-30T11:40:55;21.60;99.90
42019;DHT22;27703;51.980;5.848;2023-07-30T11:43:22;21.70;99.90
42019;DHT22;27703;51.980;5.848;2023-07-30T11:45:48;21.70;99.90
42019;DHT22;27703;51.980;5.848;2023-07-30T11:48:14;21.70;99.20
42019;DHT22;27703;51.980;5.848;2023-07-30T11:50:48;21.50;99.30
42019;DHT22;27703;51.980;5.848;2023-07-30T11:53:14;21.30;99.50
42019;DHT22;27703;51.980;5.848;2023-07-30T11:55:41;21.00;99.90
42019;DHT22;27703;51.980;5.848;2023-07-30T11:58:08;21.00;99.90
42019;DHT22;27703;51.980;5.848;2023-07-30T12:00:41;20.90;99.90
42019;DHT22;27703;51.980;5.848;2023-07-30T12:03:10;20.90;99.90
42019;DHT22;27703;51.980;5.848;2023-07-30T12:05:39;21.00;99.90
42019;DHT22;27703;51.980;5.848;2023-07-30T12:08:13;21.00;99.90
42019;DHT22;27703;51.980;5.848;2023-07-30T12:10:43;21.20;99.90
42019;DHT22;27703;51.980;5.848;2023-07-30T12:13:27;21.40;99.90
42019;DHT22;27703;51.980;5.848;2023-07-30T12:15:54;21.70;99.90
42019;DHT22;27703;51.980;5.848;2023-07-30T12:18:21;22.00;99.90
42019;DHT22;27703;51.980;5.848;2023-07-30T12:20:47;22.00;98.60
42019;DHT22;27703;51.980;5.848;2023-07-30T12:23:20;21.80;98.20
42019;DHT22;27703;51.980;5.848;2023-07-30T12:25:46;21.60;98.50
42019;DHT22;27703;51.980;5.848;2023-07-30T12:28:12;21.50;99.00
42019;DHT22;27703;51.980;5.848;2023-07-30T12:30:38;21.40;99.00
42019;DHT22;27703;51.980;5.848;2023-07-30T12:33:04;21.20;99.30
42019;DHT22;27703;51.980;5.848;2023-07-30T12:35:30;21.20;99.40
42019;DHT22;27703;51.980;5.848;2023-07-30T12:37:57;21.20;99.50
42019;DHT22;27703;51.980;5.848;2023-07-30T12:40:22;21.20;99.60
42019;DHT22;27703;51.980;5.848;2023-07-30T12:42:48;21.30;99.20
42019;DHT22;27703;51.980;5.848;2023-07-30T12:45:14;21.40;98.00
42019;DHT22;27703;51.980;5.848;2023-07-30T12:47:40;21.50;98.10
42019;DHT22;27703;51.980;5.848;2023-07-30T12:50:06;21.80;98.10
42019;DHT22;27703;51.980;5.848;2023-07-30T12:52:33;22.10;98.00
42019;DHT22;27703;51.980;5.848;2023-07-30T12:54:59;22.30;97.50
42019;DHT22;27703;51.980;5.848;2023-07-30T12:57:24;22.50;97.30
42019;DHT22;27703;51.980;5.848;2023-07-30T12:59:50;22.40;97.00
42019;DHT22;27703;51.980;5.848;2023-07-30T13:02:15;22.30;96.70
42019;DHT22;27703;51.980;5.848;2023-07-30T13:04:41;22.30;96.80
42019;DHT22;27703;51.980;5.848;2023-07-30T13:07:07;22.20;96.60
42019;DHT22;27703;51.980;5.848;2023-07-30T13:09:32;22.20;96.70
42019;DHT22;27703;51.980;5.848;2023-07-30T13:11:58;22.30;97.00
42019;DHT22;27703;51.980;5.848;2023-07-30T13:14:23;22.40;96.80
42019;DHT22;27703;51.980;5.848;2023-07-30T13:16:49;22.40;96.60
42019;DHT22;27703;51.980;5.848;2023-07-30T13:19:15;22.20;96.70
42019;DHT22;27703;51.980;5.848;2023-07-30T13:21:40;22.00;96.80
42019;DHT22;27703;51.980;5.848;2023-07-30T13:24:06;21.80;97.20
42019;DHT22;27703;51.980;5.848;2023-07-30T13:26:31;21.70;97.40
42019;DHT22;27703;51.980;5.848;2023-07-30T13:28:57;21.60;97.60
42019;DHT22;27703;51.980;5.848;2023-07-30T13:31:22;21.40;97.60
42019;DHT22;27703;51.980;5.848;2023-07-30T13:33:48;21.30;97.80
42019;DHT22;27703;51.980;5.848;2023-07-30T13:36:14;21.30;97.80
42019;DHT22;27703;51.980;5.848;2023-07-30T13:38:40;21.40;97.70
42019;DHT22;27703;51.980;5.848;2023-07-30T13:41:06;21.80;97.50
42019;DHT22;27703;51.980;5.848;2023-07-30T13:43:32;21.90;97.20
42019;DHT22;27703;51.980;5.848;2023-07-30T13:45:58;22.20;96.30
42019;DHT22;27703;51.980;5.848;2023-07-30T13:48:24;22.40;96.10
42019;DHT22;27703;51.980;5.848;2023-07-30T13:50:50;22.60;95.70
42019;DHT22;27703;51.980;5.848;2023-07-30T13:53:15;22.80;95.30
42019;DHT22;27703;51.980;5.848;2023-07-30T13:55:41;22.90;95.30
42019;DHT22;27703;51.980;5.848;2023-07-30T13:58:07;23.00;93.80
42019;DHT22;27703;51.980;5.848;2023-07-30T14:00:33;23.00;93.50
42019;DHT22;27703;51.980;5.848;2023-07-30T14:02:59;23.10;93.50
42019;DHT22;27703;51.980;5.848;2023-07-30T14:05:24;23.20;94.00
42019;DHT22;27703;51.980;5.848;2023-07-30T14:07:50;23.30;94.20
42019;DHT22;27703;51.980;5.848;2023-07-30T14:10:19;23.00;93.80
42019;DHT22;27703;51.980;5.848;2023-07-30T14:12:45;22.80;94.10
42019;DHT22;27703;51.980;5.848;2023-07-30T14:15:10;22.90;94.00
42019;DHT22;27703;51.980;5.848;2023-07-30T14:17:36;22.90;93.70
42019;DHT22;27703;51.980;5.848;2023-07-30T14:20:01;22.90;93.70
42019;DHT22;27703;51.980;5.848;2023-07-30T14:22:27;23.10;93.60
42019;DHT22;27703;51.980;5.848;2023-07-30T14:24:53;23.20;93.40
42019;DHT22;27703;51.980;5.848;2023-07-30T14:27:19;23.10;93.40
42019;DHT22;27703;51.980;5.848;2023-07-30T14:29:44;22.90;93.30
42019;DHT22;27703;51.980;5.848;2023-07-30T14:32:10;22.70;93.60
42019;DHT22;27703;51.980;5.848;2023-07-30T14:34:36;22.60;93.30
42019;DHT22;27703;51.980;5.848;2023-07-30T14:37:01;22.30;93.20
42019;DHT22;27703;51.980;5.848;2023-07-30T14:39:27;22.20;93.30
42019;DHT22;27703;51.980;5.848;2023-07-30T14:41:52;22.30;93.60
42019;DHT22;27703;51.980;5.848;2023-07-30T14:44:18;22.50;93.00
42019;DHT22;27703;51.980;5.848;2023-07-30T14:46:44;22.60;92.90
42019;DHT22;27703;51.980;5.848;2023-07-30T14:49:10;22.60;92.70
42019;DHT22;27703;51.980;5.848;2023-07-30T14:51:35;22.50;92.90
42019;DHT22;27703;51.980;5.848;2023-07-30T14:54:01;22.30;93.30
42019;DHT22;27703;51.980;5.848;2023-07-30T14:56:28;22.10;93.00
42019;DHT22;27703;51.980;5.848;2023-07-30T14:58:54;22.00;92.50
42019;DHT22;27703;51.980;5.848;2023-07-30T15:01:22;22.00;92.70
42019;DHT22;27703;51.980;5.848;2023-07-30T15:03:48;22.10;92.80
42019;DHT22;27703;51.980;5.848;2023-07-30T15:06:13;22.00;92.80
42019;DHT22;27703;51.980;5.848;2023-07-30T15:08:39;22.20;93.00
42019;DHT22;27703;51.980;5.848;2023-07-30T15:11:04;22.50;93.20
42019;DHT22;27703;51.980;5.848;2023-07-30T15:13:30;22.70;92.80
42019;DHT22;27703;51.980;5.848;2023-07-30T15:15:56;22.60;93.00
42019;DHT22;27703;51.980;5.848;2023-07-30T15:18:21;22.50;93.40
42019;DHT22;27703;51.980;5.848;2023-07-30T15:20:48;22.40;93.40
42019;DHT22;27703;51.980;5.848;2023-07-30T15:23:13;22.20;93.40
42019;DHT22;27703;51.980;5.848;2023-07-30T15:25:39;22.10;93.70
42019;DHT22;27703;51.980;5.848;2023-07-30T15:28:05;22.00;93.80
42019;DHT22;27703;51.980;5.848;2023-07-30T15:30:30;22.00;93.60
42019;DHT22;27703;51.980;5.848;2023-07-30T15:32:56;22.10;93.60